Time;durP1;ratioP1;P1;durP2;ratioP2;P2;SDS_P1;SDS_P2;PMS_P1;PMS_P2;Temp;Humidity;BMP_temperature;BMP_pressure;BME280_temperature;BME280_humidity;BME280_pressure;Samples;Min_cycle;Max_cycle;Signal;HPM_P1;HPM_P2
2022/10/23 00:00:23;;;;;;;42.20;20.23;;;;;;;;;;5131675;27;20032;-69
2022/10/23 00:02:53;;;;;;;43.20;20.83;;;;;;;;;;5132733;27;20117;-69
2022/10/23 00:05:20;;;;;;;40.10;20.58;;;;;;;;;;5123272;27;20130;-69
2022/10/23 00:07:50;;;;;;;40.88;20.60;;;;;;;;;;5113864;27;20043;-70
2022/10/23 00:10:16;;;;;;;37.13;18.73;;;;;;;;;;5101692;27;20071;-70
2022/10/23 00:12:43;;;;;;;37.38;19.80;;;;;;;;;;5119643;27;20054;-80
2022/10/23 00:15:10;;;;;;;42.70;19.88;;;;;;;;;;5105671;27;20145;-80
2022/10/23 00:17:37;;;;;;;39.47;19.40;;;;;;;;;;5121517;27;20087;-81
2022/10/23 00:20:03;;;;;;;42.63;20.48;;;;;;;;;;5127261;27;21419;-80
2022/10/23 00:22:29;;;;;;;41.85;19.52;;;;;;;;;;5120248;27;20047;-80
2022/10/23 00:24:55;;;;;;;42.47;20.45;;;;;;;;;;5111529;27;20042;-80
2022/10/23 00:27:21;;;;;;;38.13;20.63;;;;;;;;;;5110376;27;20073;-70
2022/10/23 00:29:47;;;;;;;42.55;20.42;;;;;;;;;;5118481;27;20043;-69
2022/10/23 00:32:13;;;;;;;43.47;20.40;;;;;;;;;;5126288;27;20483;-70
2022/10/23 00:34:39;;;;;;;38.22;20.00;;;;;;;;;;5116969;27;20114;-70
2022/10/23 00:37:05;;;;;;;43.00;22.55;;;;;;;;;;5116942;27;20043;-70
2022/10/23 00:39:32;;;;;;;42.00;20.27;;;;;;;;;;5126718;27;20130;-70
2022/10/23 00:41:58;;;;;;;40.90;19.73;;;;;;;;;;5123805;27;20042;-70
2022/10/23 00:44:24;;;;;;;36.65;19.40;;;;;;;;;;5123163;27;20031;-70
2022/10/23 00:46:50;;;;;;;44.05;21.98;;;;;;;;;;5112675;27;20038;-81
2022/10/23 00:49:16;;;;;;;39.38;20.38;;;;;;;;;;5126710;27;20062;-81
2022/10/23 00:51:52;;;;;;;40.90;21.23;;;;;;;;;;5146380;27;20115;-80
2022/10/23 00:54:21;;;;;;;45.22;21.77;;;;;;;;;;5109085;27;20144;-81
2022/10/23 00:56:47;;;;;;;42.45;21.25;;;;;;;;;;5118737;27;20030;-80
2022/10/23 00:59:13;;;;;;;44.45;21.23;;;;;;;;;;5119101;27;20091;-81
2022/10/23 01:01:40;;;;;;;40.83;21.08;;;;;;;;;;5135389;27;20500;-81
2022/10/23 01:04:07;;;;;;;43.72;21.63;;;;;;;;;;5117756;27;20050;-79
2022/10/23 01:06:42;;;;;;;41.67;21.52;;;;;;;;;;5123884;27;20038;-80
2022/10/23 01:09:12;;;;;;;47.50;20.75;;;;;;;;;;5104884;27;20483;-80
2022/10/23 01:11:57;;;;;;;42.92;21.38;;;;;;;;;;5119587;27;20047;-69
2022/10/23 01:14:28;;;;;;;41.42;20.35;;;;;;;;;;5117157;27;20043;-70
2022/10/23 01:17:01;;;;;;;38.25;19.83;;;;;;;;;;5116251;27;20399;-69
2022/10/23 01:19:31;;;;;;;40.97;20.00;;;;;;;;;;5116333;27;20399;-69
2022/10/23 01:22:05;;;;;;;40.58;19.23;;;;;;;;;;5130439;27;20043;-69
2022/10/23 01:24:31;;;;;;;36.88;20.15;;;;;;;;;;5117057;27;20108;-69
2022/10/23 01:27:09;;;;;;;38.45;20.05;;;;;;;;;;5117699;27;20144;-79
2022/10/23 01:29:58;;;;;;;33.83;18.60;;;;;;;;;;5103581;27;20046;-80
2022/10/23 01:32:30;;;;;;;36.85;19.20;;;;;;;;;;5117001;27;20043;-80
2022/10/23 01:35:07;;;;;;;32.13;17.85;;;;;;;;;;5117286;27;20141;-80
2022/10/23 01:37:42;;;;;;;35.92;19.00;;;;;;;;;;5127769;27;20047;-80
2022/10/23 01:40:11;;;;;;;40.27;19.13;;;;;;;;;;5114499;27;20035;-80
2022/10/23 01:42:40;;;;;;;36.00;17.90;;;;;;;;;;5144437;27;20388;-80
2022/10/23 01:45:09;;;;;;;40.65;19.33;;;;;;;;;;5100232;27;20480;-80
2022/10/23 01:47:36;;;;;;;38.90;18.70;;;;;;;;;;5125069;27;20065;-80
2022/10/23 01:50:05;;;;;;;35.45;18.13;;;;;;;;;;5118471;27;20034;-80
2022/10/23 01:52:31;;;;;;;37.55;17.80;;;;;;;;;;5116915;27;20148;-80
2022/10/23 01:54:59;;;;;;;32.35;17.80;;;;;;;;;;5129682;27;20114;-80
2022/10/23 01:57:28;;;;;;;35.33;17.95;;;;;;;;;;5106177;27;20113;-80
2022/10/23 01:59:56;;;;;;;32.55;17.40;;;;;;;;;;5115751;27;20041;-80
2022/10/23 02:02:24;;;;;;;41.17;18.20;;;;;;;;;;5115907;27;20043;-80
2022/10/23 02:04:53;;;;;;;34.00;18.27;;;;;;;;;;5121053;27;20115;-79
2022/10/23 02:07:19;;;;;;;30.55;17.42;;;;;;;;;;5116044;27;20038;-80
2022/10/23 02:09:45;;;;;;;33.45;18.65;;;;;;;;;;5098895;27;20567;-80
2022/10/23 02:12:14;;;;;;;38.97;18.80;;;;;;;;;;5115690;27;20586;-80
2022/10/23 02:14:45;;;;;;;38.50;18.80;;;;;;;;;;5115949;27;20065;-80
2022/10/23 02:17:34;;;;;;;32.45;18.15;;;;;;;;;;5099719;27;20495;-79
2022/10/23 02:20:15;;;;;;;33.35;17.58;;;;;;;;;;5123602;27;20479;-80
2022/10/23 02:22:46;;;;;;;30.38;16.55;;;;;;;;;;5114021;27;20047;-80
2022/10/23 02:25:17;;;;;;;32.28;17.90;;;;;;;;;;5146507;27;20058;-79
2022/10/23 02:27:48;;;;;;;31.23;16.65;;;;;;;;;;5122986;27;20551;-80
2022/10/23 02:30:16;;;;;;;27.35;16.60;;;;;;;;;;5119575;27;20064;-80
2022/10/23 02:32:44;;;;;;;31.98;17.42;;;;;;;;;;5114419;27;20042;-79
2022/10/23 02:35:10;;;;;;;29.65;17.35;;;;;;;;;;5126064;27;20046;-70
2022/10/23 02:37:37;;;;;;;31.33;17.20;;;;;;;;;;5131259;27;20038;-70
2022/10/23 02:40:03;;;;;;;33.45;17.80;;;;;;;;;;5115254;28;20045;-69
2022/10/23 02:42:33;;;;;;;32.42;16.30;;;;;;;;;;5094666;27;20043;-69
2022/10/23 02:45:05;;;;;;;35.08;16.70;;;;;;;;;;5116387;27;20121;-70
2022/10/23 02:47:37;;;;;;;28.60;16.80;;;;;;;;;;5098910;27;20035;-70
2022/10/23 02:50:06;;;;;;;31.98;17.52;;;;;;;;;;5133614;27;20540;-70
2022/10/23 02:52:32;;;;;;;32.58;17.55;;;;;;;;;;5115728;27;20067;-81
2022/10/23 02:54:58;;;;;;;28.10;16.38;;;;;;;;;;5099049;27;20039;-80
2022/10/23 02:57:24;;;;;;;28.05;16.40;;;;;;;;;;5123462;27;20066;-80
2022/10/23 02:59:53;;;;;;;27.02;16.20;;;;;;;;;;5115273;28;20080;-70
2022/10/23 03:02:19;;;;;;;27.52;15.85;;;;;;;;;;5118909;28;20039;-70
2022/10/23 03:04:46;;;;;;;27.33;16.67;;;;;;;;;;5119070;27;20058;-70
2022/10/23 03:07:12;;;;;;;33.28;16.25;;;;;;;;;;5118525;28;20039;-70
2022/10/23 03:09:39;;;;;;;29.65;16.23;;;;;;;;;;5098315;27;20035;-70
2022/10/23 03:12:05;;;;;;;25.77;15.85;;;;;;;;;;5108070;28;20036;-70
2022/10/23 03:14:31;;;;;;;26.13;16.30;;;;;;;;;;5108936;28;20054;-70
2022/10/23 03:16:57;;;;;;;25.40;15.77;;;;;;;;;;5115372;27;20039;-70
2022/10/23 03:19:23;;;;;;;27.92;17.08;;;;;;;;;;5114440;28;20077;-80
2022/10/23 03:21:49;;;;;;;30.75;17.33;;;;;;;;;;5110670;27;20046;-80
2022/10/23 03:24:15;;;;;;;28.63;16.33;;;;;;;;;;5118369;27;20039;-80
2022/10/23 03:26:41;;;;;;;27.98;17.15;;;;;;;;;;5102720;27;20075;-80
2022/10/23 03:29:07;;;;;;;28.48;16.55;;;;;;;;;;5121816;28;20027;-80
2022/10/23 03:31:33;;;;;;;30.23;16.88;;;;;;;;;;5106226;27;20117;-80
2022/10/23 03:33:59;;;;;;;32.47;17.52;;;;;;;;;;5148344;27;20038;-80
2022/10/23 03:36:25;;;;;;;30.13;17.23;;;;;;;;;;5123957;27;20394;-80
2022/10/23 03:38:51;;;;;;;29.70;17.58;;;;;;;;;;5151254;27;20034;-80
2022/10/23 03:41:17;;;;;;;29.70;17.20;;;;;;;;;;5121040;27;20061;-80
2022/10/23 03:43:43;;;;;;;32.45;17.88;;;;;;;;;;5127176;27;20047;-80
2022/10/23 03:46:11;;;;;;;30.08;18.45;;;;;;;;;;5113449;27;20035;-80
2022/10/23 03:48:38;;;;;;;32.20;17.45;;;;;;;;;;5122999;27;20400;-80
2022/10/23 03:51:05;;;;;;;35.72;18.27;;;;;;;;;;5118093;27;20054;-70
2022/10/23 03:53:31;;;;;;;32.40;17.02;;;;;;;;;;5143889;27;20045;-70
2022/10/23 03:55:57;;;;;;;31.55;18.40;;;;;;;;;;5126921;27;20050;-80
2022/10/23 03:58:23;;;;;;;30.80;17.63;;;;;;;;;;5119783;27;20076;-80
2022/10/23 04:00:49;;;;;;;34.67;18.40;;;;;;;;;;5116586;27;20043;-80
2022/10/23 04:03:15;;;;;;;29.60;18.50;;;;;;;;;;5116034;27;20039;-80
2022/10/23 04:05:42;;;;;;;33.05;18.45;;;;;;;;;;5122749;27;20556;-80
2022/10/23 04:08:11;;;;;;;32.08;18.55;;;;;;;;;;5122320;27;20046;-83
2022/10/23 04:10:37;;;;;;;33.00;18.75;;;;;;;;;;5124981;27;20039;-80
2022/10/23 04:13:03;;;;;;;31.55;18.17;;;;;;;;;;5142997;27;20035;-80
2022/10/23 04:15:29;;;;;;;30.65;18.70;;;;;;;;;;5117962;27;20047;-79
2022/10/23 04:17:55;;;;;;;33.78;18.27;;;;;;;;;;5122398;27;20111;-80
2022/10/23 04:20:21;;;;;;;31.13;18.90;;;;;;;;;;5118519;27;20035;-79
2022/10/23 04:22:47;;;;;;;31.70;18.33;;;;;;;;;;5117153;27;20093;-80
2022/10/23 04:25:13;;;;;;;30.25;18.48;;;;;;;;;;5129154;27;20393;-80
2022/10/23 04:27:39;;;;;;;29.23;18.48;;;;;;;;;;5098142;27;20078;-79
2022/10/23 04:30:06;;;;;;;29.50;19.02;;;;;;;;;;5136918;27;20111;-80
2022/10/23 04:32:32;;;;;;;36.97;19.58;;;;;;;;;;5117110;27;20457;-80
2022/10/23 04:34:58;;;;;;;32.17;19.80;;;;;;;;;;5100873;27;20148;-80
2022/10/23 04:37:24;;;;;;;39.03;20.20;;;;;;;;;;5146428;27;20509;-70
2022/10/23 04:39:50;;;;;;;35.00;19.80;;;;;;;;;;5097510;28;20048;-77
2022/10/23 04:42:16;;;;;;;35.35;19.88;;;;;;;;;;5125644;27;20482;-80
2022/10/23 04:44:42;;;;;;;34.45;19.67;;;;;;;;;;5099465;27;20503;-80
2022/10/23 04:47:08;;;;;;;32.47;20.52;;;;;;;;;;5117789;27;20513;-80
2022/10/23 04:49:34;;;;;;;35.55;20.33;;;;;;;;;;5131002;27;20395;-80
2022/10/23 04:52:00;;;;;;;37.53;19.73;;;;;;;;;;5123987;27;20347;-80
2022/10/23 04:54:26;;;;;;;32.05;19.65;;;;;;;;;;5101930;27;20050;-80
2022/10/23 04:56:52;;;;;;;35.47;21.08;;;;;;;;;;5110182;27;20043;-81
2022/10/23 04:59:19;;;;;;;40.83;21.45;;;;;;;;;;5097867;27;20143;-81
2022/10/23 05:01:45;;;;;;;32.83;19.73;;;;;;;;;;5121504;27;20045;-80
2022/10/23 05:04:12;;;;;;;36.20;20.35;;;;;;;;;;5096135;28;20044;-70
2022/10/23 05:06:39;;;;;;;33.55;20.30;;;;;;;;;;5096418;28;20438;-70
2022/10/23 05:09:05;;;;;;;35.78;19.25;;;;;;;;;;5100908;27;20035;-70
2022/10/23 05:11:31;;;;;;;35.70;20.70;;;;;;;;;;5096312;28;20031;-71
2022/10/23 05:13:57;;;;;;;34.58;19.77;;;;;;;;;;5111236;27;20039;-71
2022/10/23 05:16:37;;;;;;;35.55;20.52;;;;;;;;;;5116325;27;20050;-70
2022/10/23 05:19:04;;;;;;;34.85;20.48;;;;;;;;;;5116647;27;20074;-71
2022/10/23 05:21:32;;;;;;;36.33;20.48;;;;;;;;;;5113228;27;20082;-70
2022/10/23 05:24:00;;;;;;;37.83;20.15;;;;;;;;;;5108840;27;20458;-70
2022/10/23 05:26:26;;;;;;;35.50;20.70;;;;;;;;;;5121743;27;20046;-70
2022/10/23 05:28:52;;;;;;;38.97;20.65;;;;;;;;;;5107745;27;20404;-70
2022/10/23 05:31:20;;;;;;;34.40;20.40;;;;;;;;;;5095447;28;20031;-70
2022/10/23 05:33:46;;;;;;;40.05;21.30;;;;;;;;;;5097292;27;20411;-70
2022/10/23 05:36:13;;;;;;;33.90;19.95;;;;;;;;;;5116484;27;20046;-70
2022/10/23 05:38:39;;;;;;;37.17;20.48;;;;;;;;;;5116427;27;20403;-71
2022/10/23 05:41:05;;;;;;;38.58;20.33;;;;;;;;;;5115813;27;20395;-71
2022/10/23 05:43:31;;;;;;;36.60;20.92;;;;;;;;;;5115427;27;20143;-70
2022/10/23 05:45:58;;;;;;;37.53;20.35;;;;;;;;;;5114296;27;20041;-70
2022/10/23 05:48:24;;;;;;;34.60;20.70;;;;;;;;;;5099031;27;20035;-71
2022/10/23 05:50:50;;;;;;;38.03;21.10;;;;;;;;;;5094476;28;20064;-71
2022/10/23 05:53:16;;;;;;;37.83;20.58;;;;;;;;;;5112825;27;20401;-70
2022/10/23 05:55:42;;;;;;;37.42;20.20;;;;;;;;;;5116077;27;20039;-71
2022/10/23 05:58:08;;;;;;;37.42;20.80;;;;;;;;;;5115481;27;20047;-70
2022/10/23 06:00:34;;;;;;;34.97;19.98;;;;;;;;;;5134191;27;20035;-70
2022/10/23 06:03:01;;;;;;;40.88;21.23;;;;;;;;;;5133934;27;20082;-71
2022/10/23 06:05:27;;;;;;;39.47;21.45;;;;;;;;;;5115716;27;20047;-71
2022/10/23 06:07:58;;;;;;;38.40;22.08;;;;;;;;;;5115491;27;20062;-71
2022/10/23 06:10:24;;;;;;;35.88;21.48;;;;;;;;;;5101749;27;20074;-70
2022/10/23 06:12:50;;;;;;;37.78;21.27;;;;;;;;;;5113502;27;20429;-70
2022/10/23 06:15:16;;;;;;;40.83;20.48;;;;;;;;;;5110327;28;20092;-71
2022/10/23 06:17:42;;;;;;;34.42;20.40;;;;;;;;;;5106349;27;20039;-70
2022/10/23 06:20:09;;;;;;;40.20;21.08;;;;;;;;;;5104752;27;20027;-70
2022/10/23 06:22:35;;;;;;;38.45;20.98;;;;;;;;;;5118683;27;20074;-71
2022/10/23 06:25:01;;;;;;;40.25;21.77;;;;;;;;;;5099723;28;20043;-70
2022/10/23 06:27:27;;;;;;;42.30;21.38;;;;;;;;;;5094908;28;20035;-71
2022/10/23 06:29:53;;;;;;;38.95;21.63;;;;;;;;;;5094339;28;20110;-71
2022/10/23 06:32:19;;;;;;;35.38;20.35;;;;;;;;;;5103371;27;20039;-71
2022/10/23 06:34:45;;;;;;;41.25;21.98;;;;;;;;;;5115405;27;20050;-71
2022/10/23 06:37:11;;;;;;;40.05;19.77;;;;;;;;;;5121728;27;20047;-72
2022/10/23 06:39:39;;;;;;;37.15;19.88;;;;;;;;;;5120135;27;20108;-71
2022/10/23 06:42:05;;;;;;;36.40;19.60;;;;;;;;;;5114426;27;20495;-71
2022/10/23 06:44:31;;;;;;;34.42;19.05;;;;;;;;;;5100617;27;20041;-71
2022/10/23 06:46:59;;;;;;;35.35;19.58;;;;;;;;;;5115053;27;20074;-71
2022/10/23 06:49:25;;;;;;;33.58;19.00;;;;;;;;;;5118131;27;20076;-70
2022/10/23 06:51:51;;;;;;;38.92;19.83;;;;;;;;;;5120541;27;20048;-71
2022/10/23 06:54:17;;;;;;;34.58;18.63;;;;;;;;;;5130398;27;20043;-70
2022/10/23 06:56:43;;;;;;;32.55;19.35;;;;;;;;;;5131357;27;20065;-70
2022/10/23 06:59:09;;;;;;;33.13;18.50;;;;;;;;;;5101566;27;20051;-71
2022/10/23 07:01:35;;;;;;;33.13;17.92;;;;;;;;;;5114636;27;20039;-71
2022/10/23 07:04:01;;;;;;;34.72;18.35;;;;;;;;;;5096489;28;20483;-80
2022/10/23 07:06:27;;;;;;;31.95;17.42;;;;;;;;;;5095883;28;20043;-80
2022/10/23 07:08:53;;;;;;;30.20;17.08;;;;;;;;;;5097102;28;20043;-80
2022/10/23 07:11:20;;;;;;;28.20;16.13;;;;;;;;;;5106334;27;20034;-80
2022/10/23 07:13:46;;;;;;;32.25;16.75;;;;;;;;;;5086294;28;20093;-80
2022/10/23 07:16:13;;;;;;;26.35;16.35;;;;;;;;;;5102735;28;20043;-80
2022/10/23 07:18:39;;;;;;;26.90;15.75;;;;;;;;;;5101223;28;20035;-70
2022/10/23 07:21:05;;;;;;;27.58;15.82;;;;;;;;;;5100465;28;20043;-70
2022/10/23 07:23:31;;;;;;;24.08;15.32;;;;;;;;;;5112097;27;20071;-70
2022/10/23 07:26:08;;;;;;;34.92;16.20;;;;;;;;;;5102453;27;20454;-70
2022/10/23 07:28:34;;;;;;;27.33;15.40;;;;;;;;;;5107451;27;20123;-70
2022/10/23 07:31:01;;;;;;;28.48;16.33;;;;;;;;;;5102104;27;20044;-71
2022/10/23 07:33:27;;;;;;;27.70;14.98;;;;;;;;;;5120690;27;20047;-70
2022/10/23 07:35:53;;;;;;;25.67;14.75;;;;;;;;;;5123469;27;20049;-70
2022/10/23 07:38:19;;;;;;;25.83;14.35;;;;;;;;;;5108483;27;20118;-70
2022/10/23 07:40:45;;;;;;;28.48;15.50;;;;;;;;;;5105984;27;20054;-70
2022/10/23 07:43:11;;;;;;;24.27;14.55;;;;;;;;;;5124273;27;20043;-70
2022/10/23 07:45:37;;;;;;;24.98;13.57;;;;;;;;;;5123456;27;20502;-70
2022/10/23 07:48:04;;;;;;;22.67;13.27;;;;;;;;;;5112376;27;20062;-81
2022/10/23 07:50:30;;;;;;;26.25;15.05;;;;;;;;;;5110450;27;20035;-80
2022/10/23 07:52:57;;;;;;;20.25;11.25;;;;;;;;;;5136130;27;20136;-80
2022/10/23 07:55:23;;;;;;;26.13;13.60;;;;;;;;;;5139000;27;20135;-81
2022/10/23 07:57:49;;;;;;;22.63;13.75;;;;;;;;;;5124585;27;20043;-81
2022/10/23 08:00:15;;;;;;;22.30;13.73;;;;;;;;;;5103654;27;20503;-81
2022/10/23 08:02:41;;;;;;;25.48;13.88;;;;;;;;;;5121291;27;20078;-81
2022/10/23 08:05:08;;;;;;;19.95;12.57;;;;;;;;;;5102731;27;20099;-70
2022/10/23 08:07:34;;;;;;;21.75;12.90;;;;;;;;;;5103022;27;20039;-70
2022/10/23 08:10:00;;;;;;;21.13;13.05;;;;;;;;;;5120883;27;20402;-70
2022/10/23 08:12:26;;;;;;;21.65;12.02;;;;;;;;;;5115551;27;20047;-70
2022/10/23 08:14:52;;;;;;;21.63;12.13;;;;;;;;;;5120545;27;20031;-70
2022/10/23 08:17:18;;;;;;;19.98;12.13;;;;;;;;;;5110973;27;20036;-70
2022/10/23 08:19:47;;;;;;;18.58;10.80;;;;;;;;;;5099275;28;20079;-70
2022/10/23 08:22:13;;;;;;;17.85;11.35;;;;;;;;;;5099257;27;20043;-70
2022/10/23 08:24:39;;;;;;;22.40;10.77;;;;;;;;;;5126750;27;20095;-70
2022/10/23 08:27:05;;;;;;;20.75;11.73;;;;;;;;;;5110873;27;20045;-71
2022/10/23 08:29:31;;;;;;;21.73;11.27;;;;;;;;;;5101671;27;20086;-70
2022/10/23 08:31:57;;;;;;;19.63;10.85;;;;;;;;;;5117506;27;20543;-72
2022/10/23 08:34:24;;;;;;;20.83;10.65;;;;;;;;;;5121978;27;20178;-69
2022/10/23 08:36:50;;;;;;;16.63;10.57;;;;;;;;;;5106080;27;20050;-70
2022/10/23 08:39:16;;;;;;;19.63;9.93;;;;;;;;;;5117036;27;20511;-70
2022/10/23 08:41:43;;;;;;;17.08;10.50;;;;;;;;;;5117791;27;20058;-70
2022/10/23 08:44:33;;;;;;;16.80;9.82;;;;;;;;;;5135555;27;20050;-70
2022/10/23 08:47:01;;;;;;;15.32;10.15;;;;;;;;;;5105905;27;20058;-70
2022/10/23 08:49:35;;;;;;;16.38;9.63;;;;;;;;;;5115587;27;20061;-70
2022/10/23 08:52:05;;;;;;;19.25;10.60;;;;;;;;;;5099331;27;20055;-70
2022/10/23 08:54:45;;;;;;;14.60;9.43;;;;;;;;;;5129821;27;20042;-70
2022/10/23 08:57:16;;;;;;;15.75;9.63;;;;;;;;;;5135173;27;20040;-70
2022/10/23 08:59:45;;;;;;;16.83;9.63;;;;;;;;;;5116487;27;20118;-71
2022/10/23 09:02:22;;;;;;;13.60;9.23;;;;;;;;;;5116239;27;20051;-71
2022/10/23 09:04:49;;;;;;;15.40;8.43;;;;;;;;;;5099408;27;20051;-70
2022/10/23 09:07:34;;;;;;;12.63;8.50;;;;;;;;;;5133230;27;20380;-70
2022/10/23 09:10:10;;;;;;;14.20;7.75;;;;;;;;;;5118955;27;20376;-70
2022/10/23 09:12:38;;;;;;;15.48;8.45;;;;;;;;;;5115910;27;20488;-70
2022/10/23 09:15:29;;;;;;;19.17;8.85;;;;;;;;;;5120539;27;20046;-70
2022/10/23 09:18:00;;;;;;;13.52;8.43;;;;;;;;;;5111182;27;20035;-71
2022/10/23 09:20:34;;;;;;;15.30;8.55;;;;;;;;;;5114459;27;20050;-70
2022/10/23 09:23:01;;;;;;;15.63;8.85;;;;;;;;;;5099636;27;20066;-70
2022/10/23 09:25:29;;;;;;;13.00;8.75;;;;;;;;;;5135008;27;20035;-80
2022/10/23 09:27:56;;;;;;;14.23;7.82;;;;;;;;;;5118866;27;20031;-81
2022/10/23 09:30:39;;;;;;;15.93;8.27;;;;;;;;;;5137316;27;20042;-80
2022/10/23 09:33:16;;;;;;;13.35;8.15;;;;;;;;;;5112875;27;20039;-81
2022/10/23 09:35:56;;;;;;;15.32;7.68;;;;;;;;;;5099143;27;20031;-81
2022/10/23 09:38:33;;;;;;;11.93;8.00;;;;;;;;;;5105288;27;20037;-81
2022/10/23 09:41:06;;;;;;;13.18;7.55;;;;;;;;;;5123154;27;20535;-81
2022/10/23 09:43:32;;;;;;;14.07;7.50;;;;;;;;;;5097223;27;20078;-81
2022/10/23 09:46:03;;;;;;;14.10;8.13;;;;;;;;;;5099889;28;20038;-81
2022/10/23 09:48:30;;;;;;;12.50;6.88;;;;;;;;;;5112288;27;20037;-80
2022/10/23 09:50:57;;;;;;;13.25;7.72;;;;;;;;;;5100417;27;20039;-81
2022/10/23 09:53:30;;;;;;;12.27;7.93;;;;;;;;;;5121968;27;20038;-79
2022/10/23 09:55:58;;;;;;;13.05;8.10;;;;;;;;;;5107485;27;20055;-81
2022/10/23 09:58:29;;;;;;;14.60;8.00;;;;;;;;;;5113216;27;20039;-81
2022/10/23 10:00:56;;;;;;;14.57;7.18;;;;;;;;;;5100475;27;20519;-81
2022/10/23 10:03:22;;;;;;;14.48;8.00;;;;;;;;;;5104343;27;20123;-81
2022/10/23 10:05:59;;;;;;;12.45;6.97;;;;;;;;;;5114091;27;20055;-81
2022/10/23 10:08:29;;;;;;;14.65;7.40;;;;;;;;;;5110101;27;20079;-81
2022/10/23 10:11:01;;;;;;;13.98;7.43;;;;;;;;;;5112346;27;20043;-81
2022/10/23 10:13:44;;;;;;;11.05;6.65;;;;;;;;;;5108632;27;20036;-81
2022/10/23 10:16:10;;;;;;;14.68;7.75;;;;;;;;;;5117854;27;20050;-81
2022/10/23 10:18:45;;;;;;;13.18;7.00;;;;;;;;;;5095427;27;20031;-81
2022/10/23 10:21:20;;;;;;;14.40;7.15;;;;;;;;;;5130866;27;20031;-81
2022/10/23 10:23:54;;;;;;;13.25;7.20;;;;;;;;;;5110943;27;20068;-81
2022/10/23 10:26:21;;;;;;;12.13;6.90;;;;;;;;;;5095444;27;20118;-81
2022/10/23 10:28:47;;;;;;;11.80;6.47;;;;;;;;;;5107785;27;20039;-82
2022/10/23 10:31:23;;;;;;;11.60;6.00;;;;;;;;;;5106025;27;20043;-81
2022/10/23 10:33:49;;;;;;;11.60;6.60;;;;;;;;;;5116004;27;20057;-82
2022/10/23 10:36:34;;;;;;;10.68;6.47;;;;;;;;;;5128043;27;20045;-82
2022/10/23 10:39:02;;;;;;;10.82;6.70;;;;;;;;;;5138546;27;20039;-81
2022/10/23 10:41:34;;;;;;;9.25;5.80;;;;;;;;;;5133965;27;20035;-80
2022/10/23 10:44:19;;;;;;;16.90;6.18;;;;;;;;;;5118503;27;20442;-82
2022/10/23 10:46:45;;;;;;;15.27;6.78;;;;;;;;;;5102894;27;20039;-71
2022/10/23 10:49:29;;;;;;;11.25;5.38;;;;;;;;;;5125754;27;20375;-71
2022/10/23 10:52:14;;;;;;;9.35;5.60;;;;;;;;;;5116504;27;20099;-70
2022/10/23 10:54:43;;;;;;;12.13;5.90;;;;;;;;;;5119070;27;20083;-70
2022/10/23 10:57:14;;;;;;;9.57;5.82;;;;;;;;;;5115301;27;20484;-70
2022/10/23 10:59:43;;;;;;;7.75;5.63;;;;;;;;;;5097895;27;20064;-71
2022/10/23 11:02:27;;;;;;;10.55;5.70;;;;;;;;;;5128099;27;20045;-70
2022/10/23 11:05:11;;;;;;;13.55;5.78;;;;;;;;;;5119979;27;20054;-70
2022/10/23 11:07:40;;;;;;;9.68;5.70;;;;;;;;;;5141352;27;20114;-71
2022/10/23 11:10:17;;;;;;;14.02;5.85;;;;;;;;;;5097533;28;20074;-71
2022/10/23 11:12:44;;;;;;;12.15;6.07;;;;;;;;;;5114506;28;20087;-70
2022/10/23 11:15:12;;;;;;;10.10;6.28;;;;;;;;;;5114685;28;20074;-71
2022/10/23 11:17:39;;;;;;;11.02;5.43;;;;;;;;;;5103342;28;20075;-71
2022/10/23 11:20:13;;;;;;;9.35;5.75;;;;;;;;;;5108711;28;20403;-70
2022/10/23 11:22:48;;;;;;;11.82;6.80;;;;;;;;;;5087104;28;20075;-71
2022/10/23 11:25:20;;;;;;;10.63;6.10;;;;;;;;;;5111047;28;20031;-70
2022/10/23 11:28:05;;;;;;;10.95;6.05;;;;;;;;;;5114313;28;20428;-71
2022/10/23 11:30:54;;;;;;;10.63;5.80;;;;;;;;;;5105050;28;20472;-72
2022/10/23 11:33:20;;;;;;;9.77;5.78;;;;;;;;;;5104711;28;20065;-70
2022/10/23 11:36:04;;;;;;;10.45;5.35;;;;;;;;;;5107968;28;20391;-71
2022/10/23 11:38:38;;;;;;;11.10;5.43;;;;;;;;;;5103418;28;20039;-71
2022/10/23 11:41:06;;;;;;;11.35;5.60;;;;;;;;;;5110309;27;20048;-72
2022/10/23 11:43:35;;;;;;;9.15;5.07;;;;;;;;;;5097687;28;20044;-71
2022/10/23 11:46:20;;;;;;;8.73;5.50;;;;;;;;;;5093728;28;20403;-82
2022/10/23 11:48:46;;;;;;;11.43;5.40;;;;;;;;;;5097550;28;20086;-80
2022/10/23 11:51:30;;;;;;;8.25;4.95;;;;;;;;;;5107856;28;20039;-81
2022/10/23 11:54:14;;;;;;;12.38;7.55;;;;;;;;;;5081464;28;20112;-82
2022/10/23 11:56:59;;;;;;;9.75;5.50;;;;;;;;;;5098538;28;20039;-82
2022/10/23 11:59:30;;;;;;;8.52;4.70;;;;;;;;;;5098137;28;20555;-81
2022/10/23 12:01:57;;;;;;;10.50;5.28;;;;;;;;;;5119350;27;20035;-81
2022/10/23 12:04:25;;;;;;;11.95;5.40;;;;;;;;;;5112491;27;20088;-82
2022/10/23 12:06:58;;;;;;;7.63;4.60;;;;;;;;;;5107160;27;20248;-81
2022/10/23 12:09:31;;;;;;;10.50;5.00;;;;;;;;;;5097558;28;20039;-79
2022/10/23 12:12:06;;;;;;;8.20;4.60;;;;;;;;;;5091548;28;20035;-81
2022/10/23 12:14:33;;;;;;;9.68;4.47;;;;;;;;;;5098964;27;20039;-81
2022/10/23 12:17:00;;;;;;;9.85;4.70;;;;;;;;;;5115130;27;20043;-80
2022/10/23 12:19:28;;;;;;;6.03;4.15;;;;;;;;;;5099301;27;20046;-78
2022/10/23 12:21:56;;;;;;;8.57;4.63;;;;;;;;;;5113904;27;20530;-70
2022/10/23 12:24:42;;;;;;;10.38;5.20;;;;;;;;;;5133426;27;20103;-71
2022/10/23 12:27:17;;;;;;;9.82;4.47;;;;;;;;;;5106017;28;20036;-70
2022/10/23 12:29:49;;;;;;;9.20;4.88;;;;;;;;;;5096726;28;20043;-70
2022/10/23 12:32:39;;;;;;;10.27;4.43;;;;;;;;;;5097420;27;20035;-70
2022/10/23 12:35:18;;;;;;;8.00;4.30;;;;;;;;;;5064413;27;20385;-69
2022/10/23 12:38:01;;;;;;;9.50;4.03;;;;;;;;;;5116866;27;20096;-69
2022/10/23 12:40:29;;;;;;;11.45;4.30;;;;;;;;;;5135613;27;20039;-69
2022/10/23 12:42:56;;;;;;;10.68;4.10;;;;;;;;;;5116099;27;20091;-69
2022/10/23 12:45:23;;;;;;;8.52;3.90;;;;;;;;;;5122479;27;20110;-69
2022/10/23 12:47:50;;;;;;;7.60;3.60;;;;;;;;;;5102809;27;20042;-70
2022/10/23 12:50:17;;;;;;;11.75;4.22;;;;;;;;;;5082274;27;20074;-71
2022/10/23 12:52:50;;;;;;;9.80;3.63;;;;;;;;;;5116699;27;20078;-69
2022/10/23 12:55:16;;;;;;;6.65;3.63;;;;;;;;;;5100560;27;20042;-69
2022/10/23 12:57:43;;;;;;;7.78;3.75;;;;;;;;;;5127345;27;20043;-69
2022/10/23 13:00:10;;;;;;;9.38;3.88;;;;;;;;;;5115265;27;20107;-80
2022/10/23 13:02:36;;;;;;;8.10;3.88;;;;;;;;;;5117389;27;20055;-79
2022/10/23 13:05:05;;;;;;;8.98;3.58;;;;;;;;;;5106929;27;20039;-79
2022/10/23 13:07:33;;;;;;;9.82;4.00;;;;;;;;;;5110337;27;20055;-82
2022/10/23 13:10:00;;;;;;;7.45;3.30;;;;;;;;;;5119254;27;20039;-81
2022/10/23 13:12:32;;;;;;;9.27;4.38;;;;;;;;;;5117389;27;20093;-73
2022/10/23 13:15:02;;;;;;;12.02;5.50;;;;;;;;;;5134959;27;20036;-69
2022/10/23 13:17:45;;;;;;;8.82;3.58;;;;;;;;;;5123901;27;20124;-71
2022/10/23 13:20:11;;;;;;;8.35;3.60;;;;;;;;;;5114534;27;20035;-72
2022/10/23 13:22:40;;;;;;;7.53;3.78;;;;;;;;;;5108050;28;20085;-71
2022/10/23 13:25:22;;;;;;;7.13;3.90;;;;;;;;;;5093849;27;20424;-74
2022/10/23 13:28:02;;;;;;;10.40;3.65;;;;;;;;;;5103848;27;20047;-83
2022/10/23 13:30:32;;;;;;;6.65;3.45;;;;;;;;;;5106583;27;20043;-79
2022/10/23 13:32:58;;;;;;;10.63;3.83;;;;;;;;;;5110434;28;20032;-81
2022/10/23 13:35:25;;;;;;;11.73;3.97;;;;;;;;;;5109754;27;20095;-82
2022/10/23 13:37:51;;;;;;;12.60;4.15;;;;;;;;;;5119509;27;20043;-82
2022/10/23 13:40:25;;;;;;;6.90;3.70;;;;;;;;;;5121817;27;20031;-82
2022/10/23 13:42:53;;;;;;;8.80;4.05;;;;;;;;;;5121824;27;20071;-80
2022/10/23 13:45:21;;;;;;;6.93;3.63;;;;;;;;;;5116009;27;20049;-78
2022/10/23 13:47:47;;;;;;;8.65;4.40;;;;;;;;;;5101619;27;20113;-80
2022/10/23 13:50:13;;;;;;;9.65;4.45;;;;;;;;;;5103814;27;20130;-80
2022/10/23 13:52:43;;;;;;;8.18;4.07;;;;;;;;;;5119573;27;20070;-81
2022/10/23 13:55:16;;;;;;;7.85;3.40;;;;;;;;;;5137272;27;20084;-82
2022/10/23 13:57:46;;;;;;;10.77;3.70;;;;;;;;;;5121868;27;20829;-82
2022/10/23 14:00:12;;;;;;;9.65;3.60;;;;;;;;;;5119152;27;20042;-81
2022/10/23 14:02:38;;;;;;;7.47;3.65;;;;;;;;;;5117001;27;20495;-80
2022/10/23 14:05:07;;;;;;;12.68;3.88;;;;;;;;;;5116881;27;20055;-80
2022/10/23 14:07:34;;;;;;;8.23;4.07;;;;;;;;;;5099069;27;20084;-81
2022/10/23 14:10:00;;;;;;;9.60;3.70;;;;;;;;;;5087430;28;20121;-80
2022/10/23 14:12:26;;;;;;;7.10;3.50;;;;;;;;;;5120230;27;20086;-81
2022/10/23 14:14:53;;;;;;;8.88;3.70;;;;;;;;;;5116102;27;20039;-79
2022/10/23 14:17:22;;;;;;;8.50;4.38;;;;;;;;;;5119536;27;20062;-78
2022/10/23 14:19:49;;;;;;;10.80;5.05;;;;;;;;;;5106515;27;20118;-78
2022/10/23 14:22:15;;;;;;;9.20;4.00;;;;;;;;;;5116890;27;20039;-79
2022/10/23 14:24:41;;;;;;;7.80;3.90;;;;;;;;;;5115926;27;20047;-81
2022/10/23 14:27:07;;;;;;;7.75;3.78;;;;;;;;;;5113327;27;20031;-79
2022/10/23 14:29:33;;;;;;;7.93;3.58;;;;;;;;;;5133539;27;20483;-79
2022/10/23 14:31:59;;;;;;;8.43;4.03;;;;;;;;;;5114130;27;20078;-80
2022/10/23 14:34:25;;;;;;;6.15;2.95;;;;;;;;;;5101242;27;20502;-70